Terminal Aerodrome Forecast
Issued by NWS Pueblo, CO

Home | Current Version | Previous Version | Text Only | Print | Product List | Glossary On
Versions: 1 2 3 4 5 6 7 8 9 10 11 12 13 14 15 16 17 18 19 20 21 22 23 24 25 26 27 28 29 30 31 32 33 34 35 36 37 38 39 40 41 42 43 44 45 46 47 48 49 50
473
FTUS45 KPUB 231728
TAFCOS
TAF
KCOS 231728Z 2318/2418 VRB06KT P6SM SCT080
     FM232100 15016KT P6SM SCT200
     FM240300 14006KT P6SM SCT020 BKN080
     FM240500 13008KT 4SM BR BKN020 OVC080
     FM240700 11006KT 2SM -SN BKN002 OVC020
     FM241300 34015KT P6SM VCSH BKN100
     FM241700 33015G25KT P6SM SKC=

USA.gov is the U.S. government's official web portal to all federal, state and local government web resources and services.